Airport View

Enter AWOS ICAO identifier for current METAR.

ex. KFNL

KSHN 191153Z AUTO 27004KT 10SM OVC060 12/10 A2968 RMK AO2 RAE47 SLP050 P0002 60006 70006 T01170100 10128 20111 50009

19 May 2019 12:38

Frequency: 119.275

Phone: 360-427-3835

Other Area AWOS: KOLM - KPWT - KTIW - KGRF

TAF KOLM 191120Z 1912/2012 VRB03KT P6SM -RA SCT030 OVC060 FM191300 VRB03KT P6SM -RA OVC025 FM191700 18004KT P6SM VCSH OVC025 FM192000 24006KT P6SM OVC050 FM200600 20005KT P6SM OVC030